sensor_id;sensor_type;location;lat;lon;timestamp;temperature;humidity
40638;DHT22;26336;44.696;10.622;2022-12-10T00:02:45;6.20;99.90
40638;DHT22;26336;44.696;10.622;2022-12-10T00:05:48;6.10;99.90
40638;DHT22;26336;44.696;10.622;2022-12-10T00:08:53;6.00;99.90
40638;DHT22;26336;44.696;10.622;2022-12-10T00:11:57;5.90;99.90
40638;DHT22;26336;44.696;10.622;2022-12-10T00:15:00;5.80;99.90
40638;DHT22;26336;44.696;10.622;2022-12-10T00:18:04;5.80;99.90
40638;DHT22;26336;44.696;10.622;2022-12-10T00:21:11;5.80;99.90
40638;DHT22;26336;44.696;10.622;2022-12-10T00:24:15;5.90;99.90
40638;DHT22;26336;44.696;10.622;2022-12-10T00:27:19;6.00;99.90
40638;DHT22;26336;44.696;10.622;2022-12-10T00:30:23;6.00;99.90
40638;DHT22;26336;44.696;10.622;2022-12-10T00:33:26;6.00;99.90
40638;DHT22;26336;44.696;10.622;2022-12-10T00:36:34;6.00;99.90
40638;DHT22;26336;44.696;10.622;2022-12-10T00:39:38;6.00;99.90
40638;DHT22;26336;44.696;10.622;2022-12-10T00:42:42;6.00;99.90
40638;DHT22;26336;44.696;10.622;2022-12-10T00:45:46;6.10;99.90
40638;DHT22;26336;44.696;10.622;2022-12-10T00:48:50;6.10;99.90
40638;DHT22;26336;44.696;10.622;2022-12-10T00:51:54;6.00;99.90
40638;DHT22;26336;44.696;10.622;2022-12-10T00:54:58;6.10;99.90
40638;DHT22;26336;44.696;10.622;2022-12-10T00:58:02;6.10;99.90
40638;DHT22;26336;44.696;10.622;2022-12-10T01:01:25;6.10;99.90
40638;DHT22;26336;44.696;10.622;2022-12-10T01:04:30;6.10;99.90
40638;DHT22;26336;44.696;10.622;2022-12-10T01:07:33;6.10;99.90
40638;DHT22;26336;44.696;10.622;2022-12-10T01:10:37;6.10;99.90
40638;DHT22;26336;44.696;10.622;2022-12-10T01:13:42;6.20;99.90
40638;DHT22;26336;44.696;10.622;2022-12-10T01:16:47;6.20;99.90
40638;DHT22;26336;44.696;10.622;2022-12-10T01:19:51;6.20;99.90
40638;DHT22;26336;44.696;10.622;2022-12-10T01:22:54;6.20;99.90
40638;DHT22;26336;44.696;10.622;2022-12-10T01:26:00;6.20;99.90
40638;DHT22;26336;44.696;10.622;2022-12-10T01:29:05;6.20;99.90
40638;DHT22;26336;44.696;10.622;2022-12-10T01:32:09;6.10;99.90
40638;DHT22;26336;44.696;10.622;2022-12-10T01:35:16;6.20;99.90
40638;DHT22;26336;44.696;10.622;2022-12-10T01:38:19;6.20;99.90
40638;DHT22;26336;44.696;10.622;2022-12-10T01:41:27;6.20;99.90
40638;DHT22;26336;44.696;10.622;2022-12-10T01:47:38;6.20;99.90
40638;DHT22;26336;44.696;10.622;2022-12-10T01:50:42;6.20;99.90
40638;DHT22;26336;44.696;10.622;2022-12-10T01:53:46;6.20;99.90
40638;DHT22;26336;44.696;10.622;2022-12-10T01:56:58;6.20;99.90
40638;DHT22;26336;44.696;10.622;2022-12-10T02:00:04;6.10;99.90
40638;DHT22;26336;44.696;10.622;2022-12-10T02:03:27;6.10;99.90
40638;DHT22;26336;44.696;10.622;2022-12-10T02:06:54;6.10;99.90
40638;DHT22;26336;44.696;10.622;2022-12-10T02:10:26;6.20;99.90
40638;DHT22;26336;44.696;10.622;2022-12-10T02:13:38;6.20;99.90
40638;DHT22;26336;44.696;10.622;2022-12-10T02:17:01;6.30;99.90
40638;DHT22;26336;44.696;10.622;2022-12-10T02:23:16;6.30;99.90
40638;DHT22;26336;44.696;10.622;2022-12-10T02:30:05;6.30;99.90
40638;DHT22;26336;44.696;10.622;2022-12-10T02:33:10;6.30;99.90
40638;DHT22;26336;44.696;10.622;2022-12-10T02:36:16;6.30;99.90
40638;DHT22;26336;44.696;10.622;2022-12-10T02:39:27;6.40;99.90
40638;DHT22;26336;44.696;10.622;2022-12-10T02:42:37;6.40;99.90
40638;DHT22;26336;44.696;10.622;2022-12-10T02:45:43;6.40;99.90
40638;DHT22;26336;44.696;10.622;2022-12-10T02:48:47;6.30;99.90
40638;DHT22;26336;44.696;10.622;2022-12-10T02:51:53;6.00;99.90
40638;DHT22;26336;44.696;10.622;2022-12-10T02:54:57;6.10;99.90
40638;DHT22;26336;44.696;10.622;2022-12-10T02:58:14;5.90;99.90
40638;DHT22;26336;44.696;10.622;2022-12-10T03:01:43;5.90;99.90
40638;DHT22;26336;44.696;10.622;2022-12-10T03:05:14;5.90;99.90
40638;DHT22;26336;44.696;10.622;2022-12-10T03:08:28;6.00;99.90
40638;DHT22;26336;44.696;10.622;2022-12-10T03:11:34;6.10;99.90
40638;DHT22;26336;44.696;10.622;2022-12-10T03:14:39;6.20;99.90
40638;DHT22;26336;44.696;10.622;2022-12-10T03:17:44;6.20;99.90
40638;DHT22;26336;44.696;10.622;2022-12-10T03:20:51;6.30;99.90
40638;DHT22;26336;44.696;10.622;2022-12-10T03:23:56;6.30;99.90
40638;DHT22;26336;44.696;10.622;2022-12-10T03:27:00;6.30;99.90
40638;DHT22;26336;44.696;10.622;2022-12-10T03:30:07;6.40;99.90
40638;DHT22;26336;44.696;10.622;2022-12-10T03:33:12;6.30;99.90
40638;DHT22;26336;44.696;10.622;2022-12-10T03:36:18;6.30;99.90
40638;DHT22;26336;44.696;10.622;2022-12-10T03:39:23;6.40;99.90
40638;DHT22;26336;44.696;10.622;2022-12-10T03:42:27;6.40;99.90
40638;DHT22;26336;44.696;10.622;2022-12-10T03:45:31;6.40;99.90
40638;DHT22;26336;44.696;10.622;2022-12-10T03:48:35;6.40;99.90
40638;DHT22;26336;44.696;10.622;2022-12-10T03:51:38;6.40;99.90
40638;DHT22;26336;44.696;10.622;2022-12-10T03:54:43;6.50;99.90
40638;DHT22;26336;44.696;10.622;2022-12-10T03:57:46;6.40;99.90
40638;DHT22;26336;44.696;10.622;2022-12-10T04:00:51;6.40;99.90
40638;DHT22;26336;44.696;10.622;2022-12-10T04:03:55;6.40;99.90
40638;DHT22;26336;44.696;10.622;2022-12-10T04:06:59;6.50;99.90
40638;DHT22;26336;44.696;10.622;2022-12-10T04:10:03;6.40;99.90
40638;DHT22;26336;44.696;10.622;2022-12-10T04:13:07;6.40;99.90
40638;DHT22;26336;44.696;10.622;2022-12-10T04:16:32;6.40;99.90
40638;DHT22;26336;44.696;10.622;2022-12-10T04:19:36;6.50;99.90
40638;DHT22;26336;44.696;10.622;2022-12-10T04:22:40;6.50;99.90
40638;DHT22;26336;44.696;10.622;2022-12-10T04:26:03;6.50;99.90
40638;DHT22;26336;44.696;10.622;2022-12-10T04:29:28;6.50;99.90
40638;DHT22;26336;44.696;10.622;2022-12-10T04:32:32;6.50;99.90
40638;DHT22;26336;44.696;10.622;2022-12-10T04:35:36;6.50;99.90
40638;DHT22;26336;44.696;10.622;2022-12-10T04:38:42;6.50;99.90
40638;DHT22;26336;44.696;10.622;2022-12-10T04:41:47;6.40;99.90
40638;DHT22;26336;44.696;10.622;2022-12-10T04:44:51;6.40;99.90
40638;DHT22;26336;44.696;10.622;2022-12-10T04:47:55;6.40;99.90
40638;DHT22;26336;44.696;10.622;2022-12-10T04:51:01;6.40;99.90
40638;DHT22;26336;44.696;10.622;2022-12-10T04:54:05;6.40;99.90
40638;DHT22;26336;44.696;10.622;2022-12-10T04:57:10;6.40;99.90
40638;DHT22;26336;44.696;10.622;2022-12-10T05:00:14;6.40;99.90
40638;DHT22;26336;44.696;10.622;2022-12-10T05:03:18;6.40;99.90
40638;DHT22;26336;44.696;10.622;2022-12-10T05:06:22;6.40;99.90
40638;DHT22;26336;44.696;10.622;2022-12-10T05:09:26;6.40;99.90
40638;DHT22;26336;44.696;10.622;2022-12-10T05:12:31;6.40;99.90
40638;DHT22;26336;44.696;10.622;2022-12-10T05:15:38;6.40;99.90
40638;DHT22;26336;44.696;10.622;2022-12-10T05:18:42;6.30;99.90
40638;DHT22;26336;44.696;10.622;2022-12-10T05:21:46;6.30;99.90
40638;DHT22;26336;44.696;10.622;2022-12-10T05:25:09;6.40;99.90
40638;DHT22;26336;44.696;10.622;2022-12-10T05:28:12;6.40;99.90
40638;DHT22;26336;44.696;10.622;2022-12-10T05:31:22;6.30;99.90
40638;DHT22;26336;44.696;10.622;2022-12-10T05:34:26;6.30;99.90
40638;DHT22;26336;44.696;10.622;2022-12-10T05:37:31;6.30;99.90
40638;DHT22;26336;44.696;10.622;2022-12-10T05:40:36;6.40;99.90
40638;DHT22;26336;44.696;10.622;2022-12-10T05:43:41;6.30;99.90
40638;DHT22;26336;44.696;10.622;2022-12-10T05:46:44;6.30;99.90
40638;DHT22;26336;44.696;10.622;2022-12-10T05:49:48;6.30;99.90
40638;DHT22;26336;44.696;10.622;2022-12-10T05:52:52;6.40;99.90
40638;DHT22;26336;44.696;10.622;2022-12-10T05:56:02;6.30;99.90
40638;DHT22;26336;44.696;10.622;2022-12-10T05:59:06;6.30;99.90
40638;DHT22;26336;44.696;10.622;2022-12-10T06:02:10;6.30;99.90
40638;DHT22;26336;44.696;10.622;2022-12-10T06:05:14;6.30;99.90
40638;DHT22;26336;44.696;10.622;2022-12-10T06:08:18;6.30;99.90
40638;DHT22;26336;44.696;10.622;2022-12-10T06:11:22;6.30;99.90
40638;DHT22;26336;44.696;10.622;2022-12-10T06:14:27;6.30;99.90
40638;DHT22;26336;44.696;10.622;2022-12-10T06:17:31;6.30;99.90
40638;DHT22;26336;44.696;10.622;2022-12-10T06:20:38;6.20;99.90
40638;DHT22;26336;44.696;10.622;2022-12-10T06:23:43;6.30;99.90
40638;DHT22;26336;44.696;10.622;2022-12-10T06:26:47;6.30;99.90
40638;DHT22;26336;44.696;10.622;2022-12-10T06:29:51;6.30;99.90
40638;DHT22;26336;44.696;10.622;2022-12-10T06:32:55;6.30;99.90
40638;DHT22;26336;44.696;10.622;2022-12-10T06:35:59;6.30;99.90
40638;DHT22;26336;44.696;10.622;2022-12-10T06:39:03;6.20;99.90
40638;DHT22;26336;44.696;10.622;2022-12-10T06:42:07;6.20;99.90
40638;DHT22;26336;44.696;10.622;2022-12-10T06:45:12;6.20;99.90
40638;DHT22;26336;44.696;10.622;2022-12-10T06:48:15;6.20;99.90
40638;DHT22;26336;44.696;10.622;2022-12-10T06:51:20;6.20;99.90
40638;DHT22;26336;44.696;10.622;2022-12-10T06:54:24;6.20;99.90
40638;DHT22;26336;44.696;10.622;2022-12-10T06:57:28;6.20;99.90
40638;DHT22;26336;44.696;10.622;2022-12-10T07:00:32;6.20;99.90
40638;DHT22;26336;44.696;10.622;2022-12-10T07:03:36;6.20;99.90
40638;DHT22;26336;44.696;10.622;2022-12-10T07:06:40;6.20;99.90
40638;DHT22;26336;44.696;10.622;2022-12-10T07:09:44;6.20;99.90
40638;DHT22;26336;44.696;10.622;2022-12-10T07:12:48;6.20;99.90
40638;DHT22;26336;44.696;10.622;2022-12-10T07:15:52;6.20;99.90
40638;DHT22;26336;44.696;10.622;2022-12-10T07:18:58;6.20;99.90
40638;DHT22;26336;44.696;10.622;2022-12-10T07:22:03;6.20;99.90
40638;DHT22;26336;44.696;10.622;2022-12-10T07:25:06;6.20;99.90
40638;DHT22;26336;44.696;10.622;2022-12-10T07:28:11;6.20;99.90
40638;DHT22;26336;44.696;10.622;2022-12-10T07:31:15;6.20;99.90
40638;DHT22;26336;44.696;10.622;2022-12-10T07:34:19;6.20;99.90
40638;DHT22;26336;44.696;10.622;2022-12-10T07:37:23;6.20;99.90
40638;DHT22;26336;44.696;10.622;2022-12-10T07:40:27;6.30;99.90
40638;DHT22;26336;44.696;10.622;2022-12-10T07:43:33;6.20;99.90
40638;DHT22;26336;44.696;10.622;2022-12-10T07:46:38;6.30;99.90
40638;DHT22;26336;44.696;10.622;2022-12-10T07:49:41;6.30;99.90
40638;DHT22;26336;44.696;10.622;2022-12-10T07:52:47;6.30;99.90
40638;DHT22;26336;44.696;10.622;2022-12-10T07:55:51;6.30;99.90
40638;DHT22;26336;44.696;10.622;2022-12-10T07:58:55;6.30;99.90
40638;DHT22;26336;44.696;10.622;2022-12-10T08:01:59;6.40;99.90
40638;DHT22;26336;44.696;10.622;2022-12-10T08:05:03;6.40;99.90
40638;DHT22;26336;44.696;10.622;2022-12-10T08:08:08;6.40;99.90
40638;DHT22;26336;44.696;10.622;2022-12-10T08:11:14;6.40;99.90
40638;DHT22;26336;44.696;10.622;2022-12-10T08:14:18;6.40;99.90
40638;DHT22;26336;44.696;10.622;2022-12-10T08:17:22;6.40;99.90
40638;DHT22;26336;44.696;10.622;2022-12-10T08:20:26;6.40;99.90
40638;DHT22;26336;44.696;10.622;2022-12-10T08:23:30;6.40;99.90
40638;DHT22;26336;44.696;10.622;2022-12-10T08:26:34;6.40;99.90
40638;DHT22;26336;44.696;10.622;2022-12-10T08:29:38;6.40;99.90
40638;DHT22;26336;44.696;10.622;2022-12-10T08:32:42;6.50;99.90
40638;DHT22;26336;44.696;10.622;2022-12-10T08:35:46;6.50;99.90
40638;DHT22;26336;44.696;10.622;2022-12-10T08:38:53;6.50;99.90
40638;DHT22;26336;44.696;10.622;2022-12-10T08:41:59;6.60;99.90
40638;DHT22;26336;44.696;10.622;2022-12-10T08:45:03;6.60;99.90
40638;DHT22;26336;44.696;10.622;2022-12-10T08:48:07;6.60;99.90
40638;DHT22;26336;44.696;10.622;2022-12-10T08:51:15;6.60;99.90
40638;DHT22;26336;44.696;10.622;2022-12-10T08:54:19;6.60;99.90
40638;DHT22;26336;44.696;10.622;2022-12-10T08:57:23;6.70;99.90
40638;DHT22;26336;44.696;10.622;2022-12-10T09:00:27;6.70;99.90
40638;DHT22;26336;44.696;10.622;2022-12-10T09:03:31;6.70;99.90
40638;DHT22;26336;44.696;10.622;2022-12-10T09:06:35;6.70;99.90
40638;DHT22;26336;44.696;10.622;2022-12-10T09:09:39;6.80;99.90
40638;DHT22;26336;44.696;10.622;2022-12-10T09:12:44;6.80;99.90
40638;DHT22;26336;44.696;10.622;2022-12-10T09:15:52;6.80;99.90
40638;DHT22;26336;44.696;10.622;2022-12-10T09:18:57;6.90;99.90
40638;DHT22;26336;44.696;10.622;2022-12-10T09:22:01;6.90;99.90
40638;DHT22;26336;44.696;10.622;2022-12-10T09:25:06;6.90;99.90
40638;DHT22;26336;44.696;10.622;2022-12-10T09:28:10;6.90;99.90
40638;DHT22;26336;44.696;10.622;2022-12-10T09:31:16;6.90;99.90
40638;DHT22;26336;44.696;10.622;2022-12-10T09:34:21;6.90;99.90
40638;DHT22;26336;44.696;10.622;2022-12-10T09:37:25;6.90;99.90
40638;DHT22;26336;44.696;10.622;2022-12-10T09:40:38;7.00;99.90
40638;DHT22;26336;44.696;10.622;2022-12-10T09:47:08;6.90;99.90
40638;DHT22;26336;44.696;10.622;2022-12-10T09:50:29;6.90;99.90
40638;DHT22;26336;44.696;10.622;2022-12-10T09:53:36;6.90;99.90
40638;DHT22;26336;44.696;10.622;2022-12-10T09:56:42;7.00;99.90
40638;DHT22;26336;44.696;10.622;2022-12-10T09:59:49;7.00;99.90
40638;DHT22;26336;44.696;10.622;2022-12-10T10:02:57;7.00;99.90
40638;DHT22;26336;44.696;10.622;2022-12-10T10:06:05;7.10;99.90
40638;DHT22;26336;44.696;10.622;2022-12-10T10:09:12;7.10;99.90
40638;DHT22;26336;44.696;10.622;2022-12-10T10:12:17;7.10;99.90
40638;DHT22;26336;44.696;10.622;2022-12-10T10:15:32;7.10;99.90
40638;DHT22;26336;44.696;10.622;2022-12-10T10:18:41;7.20;99.90
40638;DHT22;26336;44.696;10.622;2022-12-10T10:21:48;7.20;99.90
40638;DHT22;26336;44.696;10.622;2022-12-10T10:24:53;7.20;99.90
40638;DHT22;26336;44.696;10.622;2022-12-10T10:27:57;7.20;99.90
40638;DHT22;26336;44.696;10.622;2022-12-10T10:31:01;7.20;99.90
40638;DHT22;26336;44.696;10.622;2022-12-10T10:34:18;7.20;99.90
40638;DHT22;26336;44.696;10.622;2022-12-10T10:40:44;7.30;99.90
40638;DHT22;26336;44.696;10.622;2022-12-10T10:43:58;7.30;99.90
40638;DHT22;26336;44.696;10.622;2022-12-10T10:47:33;7.30;99.90
40638;DHT22;26336;44.696;10.622;2022-12-10T10:54:45;7.30;99.90
40638;DHT22;26336;44.696;10.622;2022-12-10T10:57:51;7.30;99.90
40638;DHT22;26336;44.696;10.622;2022-12-10T11:01:07;7.30;99.90
40638;DHT22;26336;44.696;10.622;2022-12-10T11:04:13;7.40;99.90
40638;DHT22;26336;44.696;10.622;2022-12-10T11:10:33;7.30;99.90
40638;DHT22;26336;44.696;10.622;2022-12-10T11:13:38;7.40;99.90
40638;DHT22;26336;44.696;10.622;2022-12-10T11:16:42;7.40;99.90
40638;DHT22;26336;44.696;10.622;2022-12-10T11:23:19;7.40;99.90
40638;DHT22;26336;44.696;10.622;2022-12-10T11:26:59;7.50;99.90
40638;DHT22;26336;44.696;10.622;2022-12-10T11:30:15;7.50;99.90
40638;DHT22;26336;44.696;10.622;2022-12-10T11:37:14;7.50;99.90
40638;DHT22;26336;44.696;10.622;2022-12-10T11:40:24;7.50;99.90
40638;DHT22;26336;44.696;10.622;2022-12-10T11:50:07;7.60;99.90
40638;DHT22;26336;44.696;10.622;2022-12-10T11:56:49;7.60;99.90
40638;DHT22;26336;44.696;10.622;2022-12-10T12:03:46;7.60;99.90
40638;DHT22;26336;44.696;10.622;2022-12-10T12:07:08;7.50;99.90
40638;DHT22;26336;44.696;10.622;2022-12-10T12:17:14;7.60;99.90
40638;DHT22;26336;44.696;10.622;2022-12-10T12:20:37;7.60;99.90
40638;DHT22;26336;44.696;10.622;2022-12-10T12:27:23;7.60;99.90
40638;DHT22;26336;44.696;10.622;2022-12-10T12:30:31;7.60;99.90
40638;DHT22;26336;44.696;10.622;2022-12-10T12:33:51;7.60;99.90
40638;DHT22;26336;44.696;10.622;2022-12-10T12:36:58;7.60;99.90
40638;DHT22;26336;44.696;10.622;2022-12-10T12:40:25;7.60;99.90
40638;DHT22;26336;44.696;10.622;2022-12-10T12:43:42;7.70;99.90
40638;DHT22;26336;44.696;10.622;2022-12-10T12:46:48;7.70;99.90
40638;DHT22;26336;44.696;10.622;2022-12-10T12:49:53;7.70;99.90
40638;DHT22;26336;44.696;10.622;2022-12-10T12:53:00;7.70;99.90
40638;DHT22;26336;44.696;10.622;2022-12-10T12:56:21;7.70;99.90
40638;DHT22;26336;44.696;10.622;2022-12-10T13:05:49;7.70;99.90
40638;DHT22;26336;44.696;10.622;2022-12-10T13:12:49;7.80;99.90
40638;DHT22;26336;44.696;10.622;2022-12-10T13:15:54;7.80;99.90
40638;DHT22;26336;44.696;10.622;2022-12-10T13:22:42;7.80;99.90
40638;DHT22;26336;44.696;10.622;2022-12-10T13:32:41;7.90;99.90
40638;DHT22;26336;44.696;10.622;2022-12-10T13:54:31;8.00;99.90
40638;DHT22;26336;44.696;10.622;2022-12-10T13:58:03;8.00;99.90
40638;DHT22;26336;44.696;10.622;2022-12-10T14:05:11;8.00;99.90
40638;DHT22;26336;44.696;10.622;2022-12-10T14:08:23;8.00;99.90
40638;DHT22;26336;44.696;10.622;2022-12-10T14:11:32;8.00;99.90
40638;DHT22;26336;44.696;10.622;2022-12-10T14:14:45;8.10;99.90
40638;DHT22;26336;44.696;10.622;2022-12-10T14:17:59;8.10;99.90
40638;DHT22;26336;44.696;10.622;2022-12-10T14:21:06;8.10;99.90
40638;DHT22;26336;44.696;10.622;2022-12-10T14:24:30;8.10;99.90
40638;DHT22;26336;44.696;10.622;2022-12-10T14:27:35;8.10;99.90
40638;DHT22;26336;44.696;10.622;2022-12-10T14:30:49;8.00;99.90
40638;DHT22;26336;44.696;10.622;2022-12-10T14:33:57;8.10;99.90
40638;DHT22;26336;44.696;10.622;2022-12-10T14:37:03;8.00;99.90
40638;DHT22;26336;44.696;10.622;2022-12-10T14:40:08;8.10;99.90
40638;DHT22;26336;44.696;10.622;2022-12-10T14:43:20;8.10;99.90
40638;DHT22;26336;44.696;10.622;2022-12-10T14:46:27;8.10;99.90
40638;DHT22;26336;44.696;10.622;2022-12-10T14:49:32;8.10;99.90
40638;DHT22;26336;44.696;10.622;2022-12-10T14:52:44;8.20;99.90
40638;DHT22;26336;44.696;10.622;2022-12-10T14:55:52;8.20;99.90
40638;DHT22;26336;44.696;10.622;2022-12-10T14:59:14;8.20;99.90
40638;DHT22;26336;44.696;10.622;2022-12-10T15:02:30;8.20;99.90
40638;DHT22;26336;44.696;10.622;2022-12-10T15:05:36;8.20;99.90
40638;DHT22;26336;44.696;10.622;2022-12-10T15:08:42;8.20;99.90
40638;DHT22;26336;44.696;10.622;2022-12-10T15:11:56;8.20;99.90
40638;DHT22;26336;44.696;10.622;2022-12-10T15:15:19;8.20;99.90
40638;DHT22;26336;44.696;10.622;2022-12-10T15:18:37;8.20;99.90
40638;DHT22;26336;44.696;10.622;2022-12-10T15:21:43;8.20;99.90
40638;DHT22;26336;44.696;10.622;2022-12-10T15:24:48;8.20;99.90
40638;DHT22;26336;44.696;10.622;2022-12-10T15:27:55;8.20;99.90
40638;DHT22;26336;44.696;10.622;2022-12-10T15:31:18;8.20;99.90
40638;DHT22;26336;44.696;10.622;2022-12-10T15:34:26;8.20;99.90
40638;DHT22;26336;44.696;10.622;2022-12-10T15:37:38;8.30;99.90
40638;DHT22;26336;44.696;10.622;2022-12-10T15:40:43;8.20;99.90
40638;DHT22;26336;44.696;10.622;2022-12-10T15:44:05;8.30;99.90
40638;DHT22;26336;44.696;10.622;2022-12-10T15:50:23;8.30;99.90
40638;DHT22;26336;44.696;10.622;2022-12-10T15:53:34;8.20;99.90
40638;DHT22;26336;44.696;10.622;2022-12-10T15:56:39;8.20;99.90
40638;DHT22;26336;44.696;10.622;2022-12-10T15:59:44;8.20;99.90
40638;DHT22;26336;44.696;10.622;2022-12-10T16:03:01;8.30;99.90
40638;DHT22;26336;44.696;10.622;2022-12-10T16:06:06;8.20;99.90
40638;DHT22;26336;44.696;10.622;2022-12-10T16:09:10;8.20;99.90
40638;DHT22;26336;44.696;10.622;2022-12-10T16:12:15;8.20;99.90
40638;DHT22;26336;44.696;10.622;2022-12-10T16:15:23;8.20;99.90
40638;DHT22;26336;44.696;10.622;2022-12-10T16:18:30;8.20;99.90
40638;DHT22;26336;44.696;10.622;2022-12-10T16:21:34;8.20;99.90
40638;DHT22;26336;44.696;10.622;2022-12-10T16:24:38;8.20;99.90
40638;DHT22;26336;44.696;10.622;2022-12-10T16:27:43;8.20;99.90
40638;DHT22;26336;44.696;10.622;2022-12-10T16:30:48;8.20;99.90
40638;DHT22;26336;44.696;10.622;2022-12-10T16:33:52;8.20;99.90
40638;DHT22;26336;44.696;10.622;2022-12-10T16:36:58;8.20;99.90
40638;DHT22;26336;44.696;10.622;2022-12-10T16:40:03;8.20;99.90
40638;DHT22;26336;44.696;10.622;2022-12-10T16:43:15;8.20;99.90
40638;DHT22;26336;44.696;10.622;2022-12-10T16:46:22;8.20;99.90
40638;DHT22;26336;44.696;10.622;2022-12-10T16:49:27;8.20;99.90
40638;DHT22;26336;44.696;10.622;2022-12-10T16:52:31;8.20;99.90
40638;DHT22;26336;44.696;10.622;2022-12-10T16:55:35;8.10;99.90
40638;DHT22;26336;44.696;10.622;2022-12-10T16:58:39;8.10;99.90
40638;DHT22;26336;44.696;10.622;2022-12-10T17:01:43;8.10;99.90
40638;DHT22;26336;44.696;10.622;2022-12-10T17:04:46;8.10;99.90
40638;DHT22;26336;44.696;10.622;2022-12-10T17:07:51;8.10;99.90
40638;DHT22;26336;44.696;10.622;2022-12-10T17:10:56;8.10;99.90
40638;DHT22;26336;44.696;10.622;2022-12-10T17:14:25;8.10;99.90
40638;DHT22;26336;44.696;10.622;2022-12-10T17:17:32;8.10;99.90
40638;DHT22;26336;44.696;10.622;2022-12-10T17:20:37;8.10;99.90
40638;DHT22;26336;44.696;10.622;2022-12-10T17:23:40;8.10;99.90
40638;DHT22;26336;44.696;10.622;2022-12-10T17:26:46;8.10;99.90
40638;DHT22;26336;44.696;10.622;2022-12-10T17:29:50;8.20;99.90
40638;DHT22;26336;44.696;10.622;2022-12-10T17:32:56;8.20;99.90
40638;DHT22;26336;44.696;10.622;2022-12-10T17:36:00;8.20;99.90
40638;DHT22;26336;44.696;10.622;2022-12-10T17:39:04;8.20;99.90
40638;DHT22;26336;44.696;10.622;2022-12-10T17:42:09;8.20;99.90
40638;DHT22;26336;44.696;10.622;2022-12-10T17:45:16;8.20;99.90
40638;DHT22;26336;44.696;10.622;2022-12-10T17:48:20;8.20;99.90
40638;DHT22;26336;44.696;10.622;2022-12-10T17:51:25;8.10;99.90
40638;DHT22;26336;44.696;10.622;2022-12-10T17:54:28;8.10;99.90
40638;DHT22;26336;44.696;10.622;2022-12-10T17:57:32;8.10;99.90
40638;DHT22;26336;44.696;10.622;2022-12-10T18:00:37;8.10;99.90
40638;DHT22;26336;44.696;10.622;2022-12-10T18:03:41;8.10;99.90
40638;DHT22;26336;44.696;10.622;2022-12-10T18:06:45;8.10;99.90
40638;DHT22;26336;44.696;10.622;2022-12-10T18:09:49;8.20;99.90
40638;DHT22;26336;44.696;10.622;2022-12-10T18:12:53;8.20;99.90
40638;DHT22;26336;44.696;10.622;2022-12-10T18:15:57;8.10;99.90
40638;DHT22;26336;44.696;10.622;2022-12-10T18:19:06;8.10;99.90
40638;DHT22;26336;44.696;10.622;2022-12-10T18:22:11;8.10;99.90
40638;DHT22;26336;44.696;10.622;2022-12-10T18:25:15;8.10;99.90
40638;DHT22;26336;44.696;10.622;2022-12-10T18:31:33;8.10;99.90
40638;DHT22;26336;44.696;10.622;2022-12-10T18:34:38;8.10;99.90
40638;DHT22;26336;44.696;10.622;2022-12-10T18:37:42;8.10;99.90
40638;DHT22;26336;44.696;10.622;2022-12-10T18:40:46;8.10;99.90
40638;DHT22;26336;44.696;10.622;2022-12-10T18:43:50;8.10;99.90
40638;DHT22;26336;44.696;10.622;2022-12-10T18:46:57;8.10;99.90
40638;DHT22;26336;44.696;10.622;2022-12-10T18:50:01;8.10;99.90
40638;DHT22;26336;44.696;10.622;2022-12-10T18:53:05;8.00;99.90
40638;DHT22;26336;44.696;10.622;2022-12-10T18:56:12;8.10;99.90
40638;DHT22;26336;44.696;10.622;2022-12-10T18:59:17;8.10;99.90
40638;DHT22;26336;44.696;10.622;2022-12-10T19:02:20;8.00;99.90
40638;DHT22;26336;44.696;10.622;2022-12-10T19:05:24;8.10;99.90
40638;DHT22;26336;44.696;10.622;2022-12-10T19:08:29;8.10;99.90
40638;DHT22;26336;44.696;10.622;2022-12-10T19:11:32;8.10;99.90
40638;DHT22;26336;44.696;10.622;2022-12-10T19:14:36;8.10;99.90
40638;DHT22;26336;44.696;10.622;2022-12-10T19:17:41;8.10;99.90
40638;DHT22;26336;44.696;10.622;2022-12-10T19:20:45;8.10;99.90
40638;DHT22;26336;44.696;10.622;2022-12-10T19:23:49;8.10;99.90
40638;DHT22;26336;44.696;10.622;2022-12-10T19:26:53;8.10;99.90
40638;DHT22;26336;44.696;10.622;2022-12-10T19:29:57;8.10;99.90
40638;DHT22;26336;44.696;10.622;2022-12-10T19:33:01;8.10;99.90
40638;DHT22;26336;44.696;10.622;2022-12-10T19:36:18;8.10;99.90
40638;DHT22;26336;44.696;10.622;2022-12-10T19:39:23;8.10;99.90
40638;DHT22;26336;44.696;10.622;2022-12-10T19:42:27;8.10;99.90
40638;DHT22;26336;44.696;10.622;2022-12-10T19:45:32;8.10;99.90
40638;DHT22;26336;44.696;10.622;2022-12-10T19:48:36;8.20;99.90
40638;DHT22;26336;44.696;10.622;2022-12-10T19:51:41;8.20;99.90
40638;DHT22;26336;44.696;10.622;2022-12-10T19:54:45;8.20;99.90
40638;DHT22;26336;44.696;10.622;2022-12-10T19:57:50;8.20;99.90
40638;DHT22;26336;44.696;10.622;2022-12-10T20:00:54;8.20;99.90
40638;DHT22;26336;44.696;10.622;2022-12-10T20:03:58;8.20;99.90
40638;DHT22;26336;44.696;10.622;2022-12-10T20:07:02;8.10;99.90
40638;DHT22;26336;44.696;10.622;2022-12-10T20:10:06;8.20;99.90
40638;DHT22;26336;44.696;10.622;2022-12-10T20:13:10;8.10;99.90
40638;DHT22;26336;44.696;10.622;2022-12-10T20:16:26;8.20;99.90
40638;DHT22;26336;44.696;10.622;2022-12-10T20:19:30;8.20;99.90
40638;DHT22;26336;44.696;10.622;2022-12-10T20:22:34;8.20;99.90
40638;DHT22;26336;44.696;10.622;2022-12-10T20:25:38;8.20;99.90
40638;DHT22;26336;44.696;10.622;2022-12-10T20:28:43;8.20;99.90
40638;DHT22;26336;44.696;10.622;2022-12-10T20:31:48;8.20;99.90
40638;DHT22;26336;44.696;10.622;2022-12-10T20:34:53;8.10;99.90
40638;DHT22;26336;44.696;10.622;2022-12-10T20:37:56;8.10;99.90
40638;DHT22;26336;44.696;10.622;2022-12-10T20:41:01;8.10;99.90
40638;DHT22;26336;44.696;10.622;2022-12-10T20:44:05;8.10;99.90
40638;DHT22;26336;44.696;10.622;2022-12-10T20:47:09;8.10;99.90
40638;DHT22;26336;44.696;10.622;2022-12-10T20:50:16;8.10;99.90
40638;DHT22;26336;44.696;10.622;2022-12-10T20:53:20;8.10;99.90
40638;DHT22;26336;44.696;10.622;2022-12-10T20:56:24;8.10;99.90
40638;DHT22;26336;44.696;10.622;2022-12-10T20:59:28;8.10;99.90
40638;DHT22;26336;44.696;10.622;2022-12-10T21:02:37;8.00;99.90
40638;DHT22;26336;44.696;10.622;2022-12-10T21:05:40;8.00;99.90
40638;DHT22;26336;44.696;10.622;2022-12-10T21:08:45;8.00;99.90
40638;DHT22;26336;44.696;10.622;2022-12-10T21:11:48;8.00;99.90
40638;DHT22;26336;44.696;10.622;2022-12-10T21:14:53;8.00;99.90
40638;DHT22;26336;44.696;10.622;2022-12-10T21:17:57;8.00;99.90
40638;DHT22;26336;44.696;10.622;2022-12-10T21:21:01;7.90;99.90
40638;DHT22;26336;44.696;10.622;2022-12-10T21:24:05;7.90;99.90
40638;DHT22;26336;44.696;10.622;2022-12-10T21:27:10;7.90;99.90